sensor_id;sensor_type;location;lat;lon;timestamp;pressure;altitude;pressure_sealevel;temperature;humidity
35655;BME280;21773;50.010;19.972;2023-10-09T00:00:00;99653.53;;;11.62;100.00
35655;BME280;21773;50.010;19.972;2023-10-09T00:03:25;99642.28;;;11.58;100.00
35655;BME280;21773;50.010;19.972;2023-10-09T00:06:30;99645.63;;;11.54;100.00
35655;BME280;21773;50.010;19.972;2023-10-09T00:09:39;99644.19;;;11.51;100.00
35655;BME280;21773;50.010;19.972;2023-10-09T00:12:50;99638.78;;;11.45;100.00
35655;BME280;21773;50.010;19.972;2023-10-09T00:15:54;99635.69;;;11.41;100.00
35655;BME280;21773;50.010;19.972;2023-10-09T00:19:03;99629.25;;;11.29;100.00
35655;BME280;21773;50.010;19.972;2023-10-09T00:22:16;99636.09;;;11.32;100.00
35655;BME280;21773;50.010;19.972;2023-10-09T00:25:28;99635.28;;;11.31;100.00
35655;BME280;21773;50.010;19.972;2023-10-09T00:28:33;99627.59;;;11.28;100.00
35655;BME280;21773;50.010;19.972;2023-10-09T00:31:37;99643.16;;;11.26;100.00
35655;BME280;21773;50.010;19.972;2023-10-09T00:34:40;99632.56;;;11.24;100.00
35655;BME280;21773;50.010;19.972;2023-10-09T00:37:43;99612.44;;;11.20;100.00
35655;BME280;21773;50.010;19.972;2023-10-09T00:40:47;99604.94;;;11.09;100.00
35655;BME280;21773;50.010;19.972;2023-10-09T00:44:00;99607.03;;;11.01;100.00
35655;BME280;21773;50.010;19.972;2023-10-09T00:47:11;99598.31;;;10.85;100.00
35655;BME280;21773;50.010;19.972;2023-10-09T00:50:25;99594.34;;;10.81;100.00
35655;BME280;21773;50.010;19.972;2023-10-09T00:53:29;99595.63;;;10.79;100.00
35655;BME280;21773;50.010;19.972;2023-10-09T00:56:35;99586.88;;;10.77;100.00
35655;BME280;21773;50.010;19.972;2023-10-09T00:59:45;99568.44;;;10.74;100.00
35655;BME280;21773;50.010;19.972;2023-10-09T01:03:01;99578.78;;;10.77;100.00
35655;BME280;21773;50.010;19.972;2023-10-09T01:06:22;99558.88;;;10.78;100.00
35655;BME280;21773;50.010;19.972;2023-10-09T01:09:30;99553.50;;;10.78;100.00
35655;BME280;21773;50.010;19.972;2023-10-09T01:12:39;99553.91;;;10.75;100.00
35655;BME280;21773;50.010;19.972;2023-10-09T01:15:47;99542.06;;;10.76;100.00
35655;BME280;21773;50.010;19.972;2023-10-09T01:18:52;99526.94;;;10.75;100.00
35655;BME280;21773;50.010;19.972;2023-10-09T01:21:56;99524.25;;;10.75;100.00
35655;BME280;21773;50.010;19.972;2023-10-09T01:25:08;99526.13;;;10.74;100.00
35655;BME280;21773;50.010;19.972;2023-10-09T01:28:12;99527.13;;;10.67;100.00
35655;BME280;21773;50.010;19.972;2023-10-09T01:31:18;99528.59;;;10.63;100.00
35655;BME280;21773;50.010;19.972;2023-10-09T01:34:23;99504.31;;;10.50;100.00
35655;BME280;21773;50.010;19.972;2023-10-09T01:37:43;99511.38;;;10.64;100.00
35655;BME280;21773;50.010;19.972;2023-10-09T01:40:52;99531.69;;;10.66;100.00
35655;BME280;21773;50.010;19.972;2023-10-09T01:44:04;99524.84;;;10.64;100.00
35655;BME280;21773;50.010;19.972;2023-10-09T01:47:16;99515.50;;;10.66;100.00
35655;BME280;21773;50.010;19.972;2023-10-09T01:50:21;99521.94;;;10.72;100.00
35655;BME280;21773;50.010;19.972;2023-10-09T01:53:29;99517.78;;;10.76;100.00
35655;BME280;21773;50.010;19.972;2023-10-09T01:56:36;99526.53;;;10.78;100.00
35655;BME280;21773;50.010;19.972;2023-10-09T01:59:43;99530.25;;;10.83;100.00
35655;BME280;21773;50.010;19.972;2023-10-09T02:02:48;99521.53;;;10.81;100.00
35655;BME280;21773;50.010;19.972;2023-10-09T02:05:52;99521.34;;;10.83;100.00
35655;BME280;21773;50.010;19.972;2023-10-09T02:09:02;99513.03;;;10.84;100.00
35655;BME280;21773;50.010;19.972;2023-10-09T02:12:09;99525.91;;;10.89;100.00
35655;BME280;21773;50.010;19.972;2023-10-09T02:15:13;99507.41;;;10.93;100.00
35655;BME280;21773;50.010;19.972;2023-10-09T02:18:19;99516.97;;;10.89;100.00
35655;BME280;21773;50.010;19.972;2023-10-09T02:21:29;99518.84;;;10.88;100.00
35655;BME280;21773;50.010;19.972;2023-10-09T02:24:36;99512.19;;;10.91;100.00
35655;BME280;21773;50.010;19.972;2023-10-09T02:27:54;99500.38;;;10.98;100.00
35655;BME280;21773;50.010;19.972;2023-10-09T02:31:09;99504.94;;;11.04;100.00
35655;BME280;21773;50.010;19.972;2023-10-09T02:34:13;99484.56;;;11.08;100.00
35655;BME280;21773;50.010;19.972;2023-10-09T02:37:18;99471.69;;;11.10;100.00
35655;BME280;21773;50.010;19.972;2023-10-09T02:40:27;99477.50;;;11.14;100.00
35655;BME280;21773;50.010;19.972;2023-10-09T02:43:35;99455.50;;;11.10;100.00
35655;BME280;21773;50.010;19.972;2023-10-09T02:46:46;99467.50;;;11.21;100.00
35655;BME280;21773;50.010;19.972;2023-10-09T02:49:50;99477.47;;;11.20;100.00
35655;BME280;21773;50.010;19.972;2023-10-09T02:52:54;99477.28;;;11.22;100.00
35655;BME280;21773;50.010;19.972;2023-10-09T02:56:02;99481.22;;;11.26;100.00
35655;BME280;21773;50.010;19.972;2023-10-09T02:59:16;99470.41;;;11.33;100.00
35655;BME280;21773;50.010;19.972;2023-10-09T03:02:19;99472.66;;;11.36;100.00
35655;BME280;21773;50.010;19.972;2023-10-09T03:05:22;99471.19;;;11.40;100.00
35655;BME280;21773;50.010;19.972;2023-10-09T03:08:25;99466.81;;;11.45;100.00
35655;BME280;21773;50.010;19.972;2023-10-09T03:11:29;99462.88;;;11.41;100.00
35655;BME280;21773;50.010;19.972;2023-10-09T03:14:36;99457.25;;;11.49;100.00
35655;BME280;21773;50.010;19.972;2023-10-09T03:17:40;99449.97;;;11.50;100.00
35655;BME280;21773;50.010;19.972;2023-10-09T03:20:44;99461.16;;;11.53;100.00
35655;BME280;21773;50.010;19.972;2023-10-09T03:23:49;99462.00;;;11.54;100.00
35655;BME280;21773;50.010;19.972;2023-10-09T03:26:52;99459.28;;;11.54;100.00
35655;BME280;21773;50.010;19.972;2023-10-09T03:29:59;99467.00;;;11.57;100.00
35655;BME280;21773;50.010;19.972;2023-10-09T03:33:07;99454.91;;;11.59;100.00
35655;BME280;21773;50.010;19.972;2023-10-09T03:36:10;99456.41;;;11.49;100.00
35655;BME280;21773;50.010;19.972;2023-10-09T03:39:14;99468.47;;;11.53;100.00
35655;BME280;21773;50.010;19.972;2023-10-09T03:42:26;99468.03;;;11.49;100.00
35655;BME280;21773;50.010;19.972;2023-10-09T03:45:33;99450.38;;;11.53;100.00
35655;BME280;21773;50.010;19.972;2023-10-09T03:48:37;99440.00;;;11.50;100.00
35655;BME280;21773;50.010;19.972;2023-10-09T03:51:40;99436.47;;;11.50;100.00
35655;BME280;21773;50.010;19.972;2023-10-09T03:54:45;99436.06;;;11.53;100.00
35655;BME280;21773;50.010;19.972;2023-10-09T03:57:49;99428.75;;;11.53;100.00
35655;BME280;21773;50.010;19.972;2023-10-09T04:00:54;99434.16;;;11.60;100.00
35655;BME280;21773;50.010;19.972;2023-10-09T04:03:59;99407.13;;;11.66;100.00
35655;BME280;21773;50.010;19.972;2023-10-09T04:07:02;99384.84;;;11.71;100.00
35655;BME280;21773;50.010;19.972;2023-10-09T04:10:08;99378.63;;;11.70;100.00
35655;BME280;21773;50.010;19.972;2023-10-09T04:13:34;99385.91;;;11.77;100.00
35655;BME280;21773;50.010;19.972;2023-10-09T04:16:39;99387.72;;;11.83;100.00
35655;BME280;21773;50.010;19.972;2023-10-09T04:19:53;99391.41;;;11.88;100.00
35655;BME280;21773;50.010;19.972;2023-10-09T04:23:10;99390.75;;;11.93;100.00
35655;BME280;21773;50.010;19.972;2023-10-09T04:26:18;99387.41;;;11.97;100.00
35655;BME280;21773;50.010;19.972;2023-10-09T04:29:23;99379.28;;;11.97;100.00
35655;BME280;21773;50.010;19.972;2023-10-09T04:32:31;99377.59;;;12.03;100.00
35655;BME280;21773;50.010;19.972;2023-10-09T04:35:36;99376.34;;;12.05;100.00
35655;BME280;21773;50.010;19.972;2023-10-09T04:38:42;99366.75;;;12.09;100.00
35655;BME280;21773;50.010;19.972;2023-10-09T04:41:58;99367.13;;;12.13;100.00
35655;BME280;21773;50.010;19.972;2023-10-09T04:45:16;99350.19;;;12.24;100.00
35655;BME280;21773;50.010;19.972;2023-10-09T04:48:44;99341.72;;;12.21;100.00
35655;BME280;21773;50.010;19.972;2023-10-09T04:51:48;99331.50;;;12.23;100.00
35655;BME280;21773;50.010;19.972;2023-10-09T04:55:07;99334.44;;;12.21;100.00
35655;BME280;21773;50.010;19.972;2023-10-09T04:58:19;99340.44;;;12.23;100.00
35655;BME280;21773;50.010;19.972;2023-10-09T05:01:27;99345.16;;;12.28;100.00
35655;BME280;21773;50.010;19.972;2023-10-09T05:04:40;99340.16;;;12.31;100.00
35655;BME280;21773;50.010;19.972;2023-10-09T05:07:43;99337.22;;;12.33;100.00
35655;BME280;21773;50.010;19.972;2023-10-09T05:10:58;99343.25;;;12.35;100.00
35655;BME280;21773;50.010;19.972;2023-10-09T05:14:21;99339.50;;;12.36;100.00
35655;BME280;21773;50.010;19.972;2023-10-09T05:17:40;99346.53;;;12.37;100.00
35655;BME280;21773;50.010;19.972;2023-10-09T05:20:55;99328.44;;;12.37;100.00
35655;BME280;21773;50.010;19.972;2023-10-09T05:24:00;99334.69;;;12.38;100.00
35655;BME280;21773;50.010;19.972;2023-10-09T05:27:21;99320.34;;;12.37;100.00
35655;BME280;21773;50.010;19.972;2023-10-09T05:30:47;99307.44;;;12.39;100.00
35655;BME280;21773;50.010;19.972;2023-10-09T05:33:57;99303.91;;;12.39;100.00
35655;BME280;21773;50.010;19.972;2023-10-09T05:37:05;99304.09;;;12.37;100.00
35655;BME280;21773;50.010;19.972;2023-10-09T05:40:19;99301.41;;;12.37;100.00
35655;BME280;21773;50.010;19.972;2023-10-09T05:43:32;99292.91;;;12.34;100.00
35655;BME280;21773;50.010;19.972;2023-10-09T05:46:53;99285.84;;;12.33;100.00
35655;BME280;21773;50.010;19.972;2023-10-09T05:50:25;99274.44;;;12.31;100.00
35655;BME280;21773;50.010;19.972;2023-10-09T05:53:40;99256.56;;;12.30;100.00
35655;BME280;21773;50.010;19.972;2023-10-09T05:57:13;99260.69;;;12.32;100.00
35655;BME280;21773;50.010;19.972;2023-10-09T06:00:35;99253.19;;;12.34;100.00
35655;BME280;21773;50.010;19.972;2023-10-09T06:03:55;99232.69;;;12.45;100.00
35655;BME280;21773;50.010;19.972;2023-10-09T06:07:06;99216.69;;;12.43;100.00
35655;BME280;21773;50.010;19.972;2023-10-09T06:10:17;99235.63;;;12.62;100.00
35655;BME280;21773;50.010;19.972;2023-10-09T06:13:39;99232.97;;;12.73;100.00
35655;BME280;21773;50.010;19.972;2023-10-09T06:16:47;99229.97;;;12.81;100.00
35655;BME280;21773;50.010;19.972;2023-10-09T06:20:02;99235.06;;;12.89;100.00
35655;BME280;21773;50.010;19.972;2023-10-09T06:23:27;99239.94;;;12.99;100.00
35655;BME280;21773;50.010;19.972;2023-10-09T06:27:00;99259.97;;;13.10;100.00
35655;BME280;21773;50.010;19.972;2023-10-09T06:30:15;99280.69;;;13.22;100.00
35655;BME280;21773;50.010;19.972;2023-10-09T06:33:26;99282.22;;;13.30;100.00
35655;BME280;21773;50.010;19.972;2023-10-09T06:36:31;99293.75;;;13.25;100.00
35655;BME280;21773;50.010;19.972;2023-10-09T06:39:35;99298.09;;;13.26;100.00
35655;BME280;21773;50.010;19.972;2023-10-09T06:42:54;99314.34;;;13.26;100.00
35655;BME280;21773;50.010;19.972;2023-10-09T06:45:58;99321.22;;;13.29;100.00
35655;BME280;21773;50.010;19.972;2023-10-09T06:49:21;99315.31;;;13.32;100.00
35655;BME280;21773;50.010;19.972;2023-10-09T06:52:31;99319.69;;;13.33;100.00
35655;BME280;21773;50.010;19.972;2023-10-09T06:55:48;99315.47;;;13.37;100.00
35655;BME280;21773;50.010;19.972;2023-10-09T06:58:53;99303.81;;;13.36;100.00
35655;BME280;21773;50.010;19.972;2023-10-09T07:01:57;99307.56;;;13.35;100.00
35655;BME280;21773;50.010;19.972;2023-10-09T07:05:27;99299.56;;;13.29;100.00
35655;BME280;21773;50.010;19.972;2023-10-09T07:08:40;99306.44;;;13.25;100.00
35655;BME280;21773;50.010;19.972;2023-10-09T07:11:59;99287.69;;;13.12;100.00
35655;BME280;21773;50.010;19.972;2023-10-09T07:15:08;99250.09;;;12.85;100.00
35655;BME280;21773;50.010;19.972;2023-10-09T07:18:29;99298.88;;;13.15;100.00
35655;BME280;21773;50.010;19.972;2023-10-09T07:21:51;99298.81;;;13.03;100.00
35655;BME280;21773;50.010;19.972;2023-10-09T07:24:56;99298.66;;;12.98;100.00
35655;BME280;21773;50.010;19.972;2023-10-09T07:28:01;99305.81;;;12.93;100.00
35655;BME280;21773;50.010;19.972;2023-10-09T07:31:06;99293.09;;;12.93;100.00
35655;BME280;21773;50.010;19.972;2023-10-09T07:34:12;99292.34;;;12.86;100.00
35655;BME280;21773;50.010;19.972;2023-10-09T07:37:32;99293.47;;;12.79;100.00
35655;BME280;21773;50.010;19.972;2023-10-09T07:40:41;99291.97;;;12.83;100.00
35655;BME280;21773;50.010;19.972;2023-10-09T07:43:57;99287.84;;;12.80;100.00
35655;BME280;21773;50.010;19.972;2023-10-09T07:47:22;99286.19;;;12.79;100.00
35655;BME280;21773;50.010;19.972;2023-10-09T07:50:48;99288.28;;;12.59;100.00
35655;BME280;21773;50.010;19.972;2023-10-09T07:53:51;99280.53;;;12.63;100.00
35655;BME280;21773;50.010;19.972;2023-10-09T07:56:59;99277.84;;;12.63;100.00
35655;BME280;21773;50.010;19.972;2023-10-09T08:00:12;99278.53;;;12.58;100.00
35655;BME280;21773;50.010;19.972;2023-10-09T08:03:37;99277.16;;;12.49;100.00
35655;BME280;21773;50.010;19.972;2023-10-09T08:06:41;99289.13;;;12.59;100.00
35655;BME280;21773;50.010;19.972;2023-10-09T08:10:07;99301.59;;;12.61;100.00
35655;BME280;21773;50.010;19.972;2023-10-09T08:13:27;99306.75;;;12.62;100.00
35655;BME280;21773;50.010;19.972;2023-10-09T08:16:50;99288.88;;;12.61;100.00
35655;BME280;21773;50.010;19.972;2023-10-09T08:19:55;99280.47;;;12.69;100.00
35655;BME280;21773;50.010;19.972;2023-10-09T08:23:00;99269.56;;;12.76;100.00
35655;BME280;21773;50.010;19.972;2023-10-09T08:26:06;99264.16;;;12.76;100.00
35655;BME280;21773;50.010;19.972;2023-10-09T08:29:15;99252.81;;;12.67;100.00
35655;BME280;21773;50.010;19.972;2023-10-09T08:32:19;99249.22;;;12.73;100.00
35655;BME280;21773;50.010;19.972;2023-10-09T08:35:44;99250.34;;;12.47;100.00
35655;BME280;21773;50.010;19.972;2023-10-09T08:38:50;99246.81;;;12.47;100.00
35655;BME280;21773;50.010;19.972;2023-10-09T08:42:00;99239.47;;;12.54;100.00
35655;BME280;21773;50.010;19.972;2023-10-09T08:45:11;99233.19;;;12.72;100.00
35655;BME280;21773;50.010;19.972;2023-10-09T08:48:16;99230.56;;;12.83;100.00
35655;BME280;21773;50.010;19.972;2023-10-09T08:51:22;99229.59;;;12.78;100.00
35655;BME280;21773;50.010;19.972;2023-10-09T08:54:26;99217.19;;;12.88;100.00
35655;BME280;21773;50.010;19.972;2023-10-09T08:57:38;99202.63;;;13.01;100.00
35655;BME280;21773;50.010;19.972;2023-10-09T09:00:42;99200.41;;;13.28;100.00
35655;BME280;21773;50.010;19.972;2023-10-09T09:03:48;99196.94;;;13.62;100.00
35655;BME280;21773;50.010;19.972;2023-10-09T09:06:53;99181.63;;;13.79;100.00
35655;BME280;21773;50.010;19.972;2023-10-09T09:09:57;99179.66;;;13.86;100.00
35655;BME280;21773;50.010;19.972;2023-10-09T09:13:05;99172.91;;;14.01;100.00
35655;BME280;21773;50.010;19.972;2023-10-09T09:16:16;99169.13;;;14.13;100.00
35655;BME280;21773;50.010;19.972;2023-10-09T09:19:31;99161.69;;;14.20;100.00
35655;BME280;21773;50.010;19.972;2023-10-09T09:22:51;99167.00;;;14.04;100.00
35655;BME280;21773;50.010;19.972;2023-10-09T09:25:55;99145.69;;;14.07;100.00
35655;BME280;21773;50.010;19.972;2023-10-09T09:29:04;99121.88;;;14.09;100.00
35655;BME280;21773;50.010;19.972;2023-10-09T09:32:10;99121.22;;;13.67;100.00
35655;BME280;21773;50.010;19.972;2023-10-09T09:35:20;99132.13;;;13.26;100.00
35655;BME280;21773;50.010;19.972;2023-10-09T09:38:32;99136.25;;;13.28;100.00
35655;BME280;21773;50.010;19.972;2023-10-09T09:41:50;99120.25;;;13.38;100.00
35655;BME280;21773;50.010;19.972;2023-10-09T09:44:55;99130.00;;;13.39;100.00
35655;BME280;21773;50.010;19.972;2023-10-09T09:48:02;99137.19;;;13.22;100.00
35655;BME280;21773;50.010;19.972;2023-10-09T09:51:08;99136.06;;;12.70;100.00
35655;BME280;21773;50.010;19.972;2023-10-09T09:54:13;99139.22;;;12.67;100.00
35655;BME280;21773;50.010;19.972;2023-10-09T09:57:20;99132.19;;;12.48;100.00
35655;BME280;21773;50.010;19.972;2023-10-09T10:00:29;99128.34;;;12.55;100.00
35655;BME280;21773;50.010;19.972;2023-10-09T10:03:47;99127.47;;;12.73;100.00
35655;BME280;21773;50.010;19.972;2023-10-09T10:06:54;99121.72;;;12.81;100.00
35655;BME280;21773;50.010;19.972;2023-10-09T10:10:36;99107.63;;;12.79;100.00
35655;BME280;21773;50.010;19.972;2023-10-09T10:13:56;99113.25;;;12.78;100.00
35655;BME280;21773;50.010;19.972;2023-10-09T10:17:03;99120.94;;;12.92;100.00
35655;BME280;21773;50.010;19.972;2023-10-09T10:20:13;99113.50;;;13.18;100.00
35655;BME280;21773;50.010;19.972;2023-10-09T10:23:30;99109.75;;;13.30;100.00
35655;BME280;21773;50.010;19.972;2023-10-09T10:26:35;99117.63;;;13.20;100.00
35655;BME280;21773;50.010;19.972;2023-10-09T10:29:39;99097.66;;;13.33;100.00
35655;BME280;21773;50.010;19.972;2023-10-09T10:32:55;99090.97;;;13.06;100.00
35655;BME280;21773;50.010;19.972;2023-10-09T10:35:59;99086.41;;;12.76;100.00
35655;BME280;21773;50.010;19.972;2023-10-09T10:39:08;99069.44;;;12.57;100.00
35655;BME280;21773;50.010;19.972;2023-10-09T10:42:15;99068.09;;;12.78;100.00
35655;BME280;21773;50.010;19.972;2023-10-09T10:45:36;99070.84;;;12.90;100.00
35655;BME280;21773;50.010;19.972;2023-10-09T10:48:40;99064.50;;;13.08;100.00
35655;BME280;21773;50.010;19.972;2023-10-09T10:51:49;99058.75;;;13.16;100.00
35655;BME280;21773;50.010;19.972;2023-10-09T10:55:10;99056.31;;;13.26;100.00
35655;BME280;21773;50.010;19.972;2023-10-09T10:58:29;99046.53;;;13.25;100.00
35655;BME280;21773;50.010;19.972;2023-10-09T11:01:38;99052.06;;;13.41;100.00
35655;BME280;21773;50.010;19.972;2023-10-09T11:04:58;99035.47;;;13.50;100.00
35655;BME280;21773;50.010;19.972;2023-10-09T11:08:17;99008.16;;;13.39;100.00
35655;BME280;21773;50.010;19.972;2023-10-09T11:11:24;99011.88;;;12.92;100.00
35655;BME280;21773;50.010;19.972;2023-10-09T11:14:35;99010.59;;;13.06;100.00
35655;BME280;21773;50.010;19.972;2023-10-09T11:17:57;98996.63;;;13.32;100.00
35655;BME280;21773;50.010;19.972;2023-10-09T11:21:07;98991.06;;;13.39;100.00
35655;BME280;21773;50.010;19.972;2023-10-09T11:24:36;98978.03;;;13.13;100.00
35655;BME280;21773;50.010;19.972;2023-10-09T11:27:40;98977.69;;;12.44;100.00
35655;BME280;21773;50.010;19.972;2023-10-09T11:30:55;98965.00;;;12.45;100.00
35655;BME280;21773;50.010;19.972;2023-10-09T11:33:58;98966.16;;;12.37;100.00
35655;BME280;21773;50.010;19.972;2023-10-09T11:37:12;98952.44;;;12.50;100.00
35655;BME280;21773;50.010;19.972;2023-10-09T11:40:30;98953.84;;;12.53;100.00
35655;BME280;21773;50.010;19.972;2023-10-09T11:43:50;98960.19;;;12.58;100.00
35655;BME280;21773;50.010;19.972;2023-10-09T11:46:58;98961.59;;;12.61;100.00
35655;BME280;21773;50.010;19.972;2023-10-09T11:50:16;98954.63;;;12.42;100.00
35655;BME280;21773;50.010;19.972;2023-10-09T11:53:19;98958.28;;;12.47;100.00
35655;BME280;21773;50.010;19.972;2023-10-09T11:56:36;98948.31;;;12.48;100.00
35655;BME280;21773;50.010;19.972;2023-10-09T11:59:39;98943.25;;;12.51;100.00
35655;BME280;21773;50.010;19.972;2023-10-09T12:02:45;98938.53;;;12.47;100.00
35655;BME280;21773;50.010;19.972;2023-10-09T12:05:48;98931.03;;;12.49;100.00
35655;BME280;21773;50.010;19.972;2023-10-09T12:08:51;98919.16;;;12.50;100.00
35655;BME280;21773;50.010;19.972;2023-10-09T12:11:55;98910.56;;;12.53;100.00
35655;BME280;21773;50.010;19.972;2023-10-09T12:15:06;98904.22;;;12.59;100.00
35655;BME280;21773;50.010;19.972;2023-10-09T12:18:21;98906.91;;;12.47;100.00
35655;BME280;21773;50.010;19.972;2023-10-09T12:21:26;98918.44;;;12.43;100.00
35655;BME280;21773;50.010;19.972;2023-10-09T12:24:30;98925.84;;;12.36;100.00
35655;BME280;21773;50.010;19.972;2023-10-09T12:27:35;98919.81;;;12.34;100.00
35655;BME280;21773;50.010;19.972;2023-10-09T12:30:38;98911.75;;;12.04;100.00
35655;BME280;21773;50.010;19.972;2023-10-09T12:33:43;98915.94;;;12.30;100.00
35655;BME280;21773;50.010;19.972;2023-10-09T12:36:46;98914.66;;;12.32;100.00
35655;BME280;21773;50.010;19.972;2023-10-09T12:39:51;98909.25;;;12.32;100.00
35655;BME280;21773;50.010;19.972;2023-10-09T12:42:57;98903.25;;;12.42;100.00
35655;BME280;21773;50.010;19.972;2023-10-09T12:46:05;98899.19;;;12.51;100.00
35655;BME280;21773;50.010;19.972;2023-10-09T12:49:09;98897.16;;;12.58;100.00
35655;BME280;21773;50.010;19.972;2023-10-09T12:52:13;98898.09;;;12.52;100.00
35655;BME280;21773;50.010;19.972;2023-10-09T12:55:18;98895.28;;;12.35;100.00
35655;BME280;21773;50.010;19.972;2023-10-09T12:58:23;98890.00;;;12.52;100.00
35655;BME280;21773;50.010;19.972;2023-10-09T13:01:28;98896.25;;;12.64;100.00
35655;BME280;21773;50.010;19.972;2023-10-09T13:04:35;98881.19;;;12.45;100.00
35655;BME280;21773;50.010;19.972;2023-10-09T13:07:42;98894.34;;;12.53;100.00
35655;BME280;21773;50.010;19.972;2023-10-09T13:10:48;98902.94;;;12.62;100.00
35655;BME280;21773;50.010;19.972;2023-10-09T13:14:00;98898.81;;;12.71;100.00
35655;BME280;21773;50.010;19.972;2023-10-09T13:17:13;98913.28;;;12.76;100.00
35655;BME280;21773;50.010;19.972;2023-10-09T13:20:18;98908.84;;;12.70;100.00
35655;BME280;21773;50.010;19.972;2023-10-09T13:23:21;98905.53;;;12.80;100.00
35655;BME280;21773;50.010;19.972;2023-10-09T13:26:35;98901.66;;;12.87;100.00
35655;BME280;21773;50.010;19.972;2023-10-09T13:29:39;98891.66;;;12.99;100.00
35655;BME280;21773;50.010;19.972;2023-10-09T13:32:43;98889.16;;;12.98;100.00
35655;BME280;21773;50.010;19.972;2023-10-09T13:35:52;98882.00;;;13.03;100.00
35655;BME280;21773;50.010;19.972;2023-10-09T13:38:55;98876.34;;;12.93;100.00
35655;BME280;21773;50.010;19.972;2023-10-09T13:41:59;98882.22;;;13.02;100.00
35655;BME280;21773;50.010;19.972;2023-10-09T13:45:06;98874.94;;;13.14;100.00
35655;BME280;21773;50.010;19.972;2023-10-09T13:48:17;98863.16;;;13.20;100.00
35655;BME280;21773;50.010;19.972;2023-10-09T13:51:24;98853.13;;;13.21;100.00
35655;BME280;21773;50.010;19.972;2023-10-09T13:54:30;98852.69;;;13.12;100.00
35655;BME280;21773;50.010;19.972;2023-10-09T13:57:43;98865.38;;;13.23;100.00
35655;BME280;21773;50.010;19.972;2023-10-09T14:00:47;98867.72;;;13.31;100.00
35655;BME280;21773;50.010;19.972;2023-10-09T14:03:52;98872.50;;;13.41;100.00
35655;BME280;21773;50.010;19.972;2023-10-09T14:06:59;98870.72;;;13.47;100.00
35655;BME280;21773;50.010;19.972;2023-10-09T14:10:04;98863.91;;;13.44;100.00
35655;BME280;21773;50.010;19.972;2023-10-09T14:13:19;98868.88;;;13.35;100.00
35655;BME280;21773;50.010;19.972;2023-10-09T14:16:28;98874.06;;;13.25;100.00
35655;BME280;21773;50.010;19.972;2023-10-09T14:19:35;98867.63;;;13.15;100.00
35655;BME280;21773;50.010;19.972;2023-10-09T14:22:39;98854.44;;;13.07;100.00
35655;BME280;21773;50.010;19.972;2023-10-09T14:25:42;98861.03;;;13.11;100.00
35655;BME280;21773;50.010;19.972;2023-10-09T14:28:46;98858.81;;;13.19;100.00
35655;BME280;21773;50.010;19.972;2023-10-09T14:31:50;98842.66;;;13.24;100.00
35655;BME280;21773;50.010;19.972;2023-10-09T14:35:02;98840.56;;;13.15;100.00
35655;BME280;21773;50.010;19.972;2023-10-09T14:38:16;98841.63;;;13.14;100.00
35655;BME280;21773;50.010;19.972;2023-10-09T14:41:22;98847.06;;;13.14;100.00
35655;BME280;21773;50.010;19.972;2023-10-09T14:44:28;98841.63;;;13.14;100.00
35655;BME280;21773;50.010;19.972;2023-10-09T14:47:32;98853.13;;;13.21;100.00
35655;BME280;21773;50.010;19.972;2023-10-09T14:50:35;98853.47;;;13.24;100.00
35655;BME280;21773;50.010;19.972;2023-10-09T14:53:42;98874.06;;;13.25;100.00
35655;BME280;21773;50.010;19.972;2023-10-09T14:56:46;98869.38;;;13.32;100.00
35655;BME280;21773;50.010;19.972;2023-10-09T14:59:49;98871.34;;;13.37;100.00
35655;BME280;21773;50.010;19.972;2023-10-09T15:02:53;98869.81;;;13.41;100.00
35655;BME280;21773;50.010;19.972;2023-10-09T15:05:58;98866.03;;;13.42;100.00
35655;BME280;21773;50.010;19.972;2023-10-09T15:09:03;98873.56;;;13.40;100.00
35655;BME280;21773;50.010;19.972;2023-10-09T15:12:11;98866.28;;;13.40;100.00
35655;BME280;21773;50.010;19.972;2023-10-09T15:15:14;98877.34;;;13.39;100.00
35655;BME280;21773;50.010;19.972;2023-10-09T15:18:17;98870.88;;;13.40;100.00
35655;BME280;21773;50.010;19.972;2023-10-09T15:21:23;98878.53;;;13.43;100.00
35655;BME280;21773;50.010;19.972;2023-10-09T15:24:29;98879.69;;;13.47;100.00
35655;BME280;21773;50.010;19.972;2023-10-09T15:27:33;98870.97;;;13.45;100.00
35655;BME280;21773;50.010;19.972;2023-10-09T15:30:36;98873.09;;;13.43;100.00
35655;BME280;21773;50.010;19.972;2023-10-09T15:33:41;98873.00;;;13.38;100.00
35655;BME280;21773;50.010;19.972;2023-10-09T15:36:44;98890.09;;;13.38;100.00
35655;BME280;21773;50.010;19.972;2023-10-09T15:39:50;98884.50;;;13.45;100.00
35655;BME280;21773;50.010;19.972;2023-10-09T15:42:53;98900.84;;;13.50;100.00
35655;BME280;21773;50.010;19.972;2023-10-09T15:45:59;98910.19;;;13.42;100.00
35655;BME280;21773;50.010;19.972;2023-10-09T15:49:03;98907.50;;;13.42;100.00
35655;BME280;21773;50.010;19.972;2023-10-09T15:52:08;98908.31;;;13.43;100.00
35655;BME280;21773;50.010;19.972;2023-10-09T15:55:17;98895.50;;;13.38;100.00
35655;BME280;21773;50.010;19.972;2023-10-09T15:58:23;98898.19;;;13.38;100.00
35655;BME280;21773;50.010;19.972;2023-10-09T16:01:27;98904.41;;;13.39;100.00
35655;BME280;21773;50.010;19.972;2023-10-09T16:04:30;98900.66;;;13.40;100.00
35655;BME280;21773;50.010;19.972;2023-10-09T16:07:36;98909.59;;;13.40;100.00
35655;BME280;21773;50.010;19.972;2023-10-09T16:10:45;98892.06;;;13.43;100.00
35655;BME280;21773;50.010;19.972;2023-10-09T16:13:49;98888.88;;;13.46;100.00
35655;BME280;21773;50.010;19.972;2023-10-09T16:16:52;98876.03;;;13.41;100.00